Randles, Missouri
Current Conditions -  °F | °C
As of 5:53 PM on Tuesday 25 Nov 2014 (Local Time) from KCGI Reporting Station
Clear Clear  
Wind Chill: 37°   Ceiling: Unl
Heat Index: 37°   Visibility: 10mi
Dew Point: 27°   Wind: 3mph
Humidity: 67%   Direction: 80°E
Pressure: 30.18"   Gusts: NA
Location:  37.1651°N, 89.623°W
Report Text: KCGI 252353Z AUTO 08003KT 10SM CLR 03/M03 A3018 RMK AO2 SLP223 T00281028 10067 20022 53010 TSNO
Loading
Personal Weather Stations






























Interactive Weather Map New forecast layout! Learn more

10-Day Weather Forecast

Advertisements
Track Severe Weather on mobile